Terminal Aerodrome Forecast
Issued by NWS

Home | Current Version | Previous Version | Text Only | Print | Product List | Glossary On
Versions: 1 2 3 4 5 6 7 8 9 10 11 12 13 14 15 16 17 18 19 20 21 22
000
FTUS41 KGYX 201733
TAFLEB
TAF
KLEB 201733Z 2018/2118 VRB03KT P6SM SCT200
     FM210800 00000KT 1SM BR OVC001
     FM211400 17005KT P6SM BKN035=

USA.gov is the U.S. government's official web portal to all federal, state and local government web resources and services.